sensor_id;sensor_type;location;lat;lon;timestamp;temperature;humidity
66608;DHT22;53462;39.616;8.824;2022-12-29T00:00:04;9.70;99.90
66608;DHT22;53462;39.616;8.824;2022-12-29T00:02:38;9.70;99.90
66608;DHT22;53462;39.616;8.824;2022-12-29T00:05:04;9.70;99.90
66608;DHT22;53462;39.616;8.824;2022-12-29T00:07:30;9.90;99.90
66608;DHT22;53462;39.616;8.824;2022-12-29T00:09:56;9.70;99.90
66608;DHT22;53462;39.616;8.824;2022-12-29T00:12:22;9.60;99.90
66608;DHT22;53462;39.616;8.824;2022-12-29T00:14:48;9.80;99.90
66608;DHT22;53462;39.616;8.824;2022-12-29T00:17:32;9.90;99.90
66608;DHT22;53462;39.616;8.824;2022-12-29T00:19:58;10.00;99.90
66608;DHT22;53462;39.616;8.824;2022-12-29T00:22:42;10.00;99.90
66608;DHT22;53462;39.616;8.824;2022-12-29T00:25:26;9.90;99.90
66608;DHT22;53462;39.616;8.824;2022-12-29T00:28:11;9.90;99.90
66608;DHT22;53462;39.616;8.824;2022-12-29T00:30:59;9.80;99.90
66608;DHT22;53462;39.616;8.824;2022-12-29T00:33:44;9.90;99.90
66608;DHT22;53462;39.616;8.824;2022-12-29T00:36:32;10.10;99.90
66608;DHT22;53462;39.616;8.824;2022-12-29T00:39:02;10.10;99.90
66608;DHT22;53462;39.616;8.824;2022-12-29T00:41:47;10.10;99.90
66608;DHT22;53462;39.616;8.824;2022-12-29T00:44:32;10.00;99.90
66608;DHT22;53462;39.616;8.824;2022-12-29T00:46:58;10.10;99.90
66608;DHT22;53462;39.616;8.824;2022-12-29T00:49:28;10.20;99.90
66608;DHT22;53462;39.616;8.824;2022-12-29T00:52:07;10.20;99.90
66608;DHT22;53462;39.616;8.824;2022-12-29T00:54:35;10.30;99.90
66608;DHT22;53462;39.616;8.824;2022-12-29T00:57:03;10.40;99.90
66608;DHT22;53462;39.616;8.824;2022-12-29T00:59:30;10.50;99.90
66608;DHT22;53462;39.616;8.824;2022-12-29T01:01:56;10.60;99.90
66608;DHT22;53462;39.616;8.824;2022-12-29T01:04:23;10.70;99.90
66608;DHT22;53462;39.616;8.824;2022-12-29T01:06:50;10.60;99.90
66608;DHT22;53462;39.616;8.824;2022-12-29T01:09:17;10.70;99.90
66608;DHT22;53462;39.616;8.824;2022-12-29T01:12:03;10.40;99.90
66608;DHT22;53462;39.616;8.824;2022-12-29T01:14:29;9.60;99.90
66608;DHT22;53462;39.616;8.824;2022-12-29T01:16:56;9.80;99.90
66608;DHT22;53462;39.616;8.824;2022-12-29T01:19:22;10.10;99.90
66608;DHT22;53462;39.616;8.824;2022-12-29T01:21:48;10.10;99.90
66608;DHT22;53462;39.616;8.824;2022-12-29T01:24:16;9.90;99.90
66608;DHT22;53462;39.616;8.824;2022-12-29T01:26:42;9.90;99.90
66608;DHT22;53462;39.616;8.824;2022-12-29T01:29:08;9.70;99.90
66608;DHT22;53462;39.616;8.824;2022-12-29T01:31:34;9.60;99.90
66608;DHT22;53462;39.616;8.824;2022-12-29T01:34:00;9.60;99.90
66608;DHT22;53462;39.616;8.824;2022-12-29T01:36:27;9.40;99.90
66608;DHT22;53462;39.616;8.824;2022-12-29T01:38:53;9.40;99.90
66608;DHT22;53462;39.616;8.824;2022-12-29T01:41:20;9.10;99.90
66608;DHT22;53462;39.616;8.824;2022-12-29T01:43:54;9.00;99.90
66608;DHT22;53462;39.616;8.824;2022-12-29T01:49:16;9.30;99.90
66608;DHT22;53462;39.616;8.824;2022-12-29T01:57:02;9.00;99.90
66608;DHT22;53462;39.616;8.824;2022-12-29T01:59:33;9.20;99.90
66608;DHT22;53462;39.616;8.824;2022-12-29T02:02:00;9.40;99.90
66608;DHT22;53462;39.616;8.824;2022-12-29T02:04:27;9.50;99.90
66608;DHT22;53462;39.616;8.824;2022-12-29T02:07:09;9.50;99.90
66608;DHT22;53462;39.616;8.824;2022-12-29T02:09:36;9.30;99.90
66608;DHT22;53462;39.616;8.824;2022-12-29T02:12:02;9.50;99.90
66608;DHT22;53462;39.616;8.824;2022-12-29T02:14:28;9.30;99.90
66608;DHT22;53462;39.616;8.824;2022-12-29T02:25:52;9.00;99.90
66608;DHT22;53462;39.616;8.824;2022-12-29T02:28:54;9.30;99.90
66608;DHT22;53462;39.616;8.824;2022-12-29T02:37:06;9.40;99.90
66608;DHT22;53462;39.616;8.824;2022-12-29T02:39:47;9.40;99.90
66608;DHT22;53462;39.616;8.824;2022-12-29T02:47:51;10.30;99.90
66608;DHT22;53462;39.616;8.824;2022-12-29T02:50:46;10.40;99.90
66608;DHT22;53462;39.616;8.824;2022-12-29T02:53:15;10.50;99.90
66608;DHT22;53462;39.616;8.824;2022-12-29T02:55:49;10.60;99.90
66608;DHT22;53462;39.616;8.824;2022-12-29T02:58:22;10.60;99.90
66608;DHT22;53462;39.616;8.824;2022-12-29T03:09:14;10.60;99.90
66608;DHT22;53462;39.616;8.824;2022-12-29T03:11:53;10.70;99.90
66608;DHT22;53462;39.616;8.824;2022-12-29T03:14:56;10.70;99.90
66608;DHT22;53462;39.616;8.824;2022-12-29T03:18:02;10.60;99.90
66608;DHT22;53462;39.616;8.824;2022-12-29T03:20:44;10.80;99.90
66608;DHT22;53462;39.616;8.824;2022-12-29T03:23:16;10.70;99.90
66608;DHT22;53462;39.616;8.824;2022-12-29T03:25:53;10.70;99.90
66608;DHT22;53462;39.616;8.824;2022-12-29T03:28:30;10.40;99.90
66608;DHT22;53462;39.616;8.824;2022-12-29T03:30:58;9.70;99.90
66608;DHT22;53462;39.616;8.824;2022-12-29T03:33:28;9.50;99.90
66608;DHT22;53462;39.616;8.824;2022-12-29T03:36:05;9.40;99.90
66608;DHT22;53462;39.616;8.824;2022-12-29T03:41:40;9.10;99.90
66608;DHT22;53462;39.616;8.824;2022-12-29T03:44:07;8.90;99.90
66608;DHT22;53462;39.616;8.824;2022-12-29T03:46:34;8.70;99.90
66608;DHT22;53462;39.616;8.824;2022-12-29T03:49:00;8.80;99.90
66608;DHT22;53462;39.616;8.824;2022-12-29T03:51:26;8.70;99.90
66608;DHT22;53462;39.616;8.824;2022-12-29T03:53:53;8.70;99.90
66608;DHT22;53462;39.616;8.824;2022-12-29T03:56:19;8.50;99.90
66608;DHT22;53462;39.616;8.824;2022-12-29T03:58:47;8.50;99.90
66608;DHT22;53462;39.616;8.824;2022-12-29T04:01:18;8.40;99.90
66608;DHT22;53462;39.616;8.824;2022-12-29T04:03:44;8.30;99.90
66608;DHT22;53462;39.616;8.824;2022-12-29T04:06:11;8.20;99.90
66608;DHT22;53462;39.616;8.824;2022-12-29T04:08:46;8.00;99.90
66608;DHT22;53462;39.616;8.824;2022-12-29T04:11:12;7.70;99.90
66608;DHT22;53462;39.616;8.824;2022-12-29T04:13:39;7.30;99.90
66608;DHT22;53462;39.616;8.824;2022-12-29T04:16:08;7.20;99.90
66608;DHT22;53462;39.616;8.824;2022-12-29T04:18:35;7.20;99.90
66608;DHT22;53462;39.616;8.824;2022-12-29T04:21:01;7.20;99.90
66608;DHT22;53462;39.616;8.824;2022-12-29T04:23:32;7.20;99.90
66608;DHT22;53462;39.616;8.824;2022-12-29T04:25:58;7.20;99.90
66608;DHT22;53462;39.616;8.824;2022-12-29T04:28:26;7.30;99.90
66608;DHT22;53462;39.616;8.824;2022-12-29T04:31:10;7.40;99.90
66608;DHT22;53462;39.616;8.824;2022-12-29T04:33:39;7.40;99.90
66608;DHT22;53462;39.616;8.824;2022-12-29T04:36:06;7.40;99.90
66608;DHT22;53462;39.616;8.824;2022-12-29T04:38:33;7.60;99.90
66608;DHT22;53462;39.616;8.824;2022-12-29T04:41:02;7.80;99.90
66608;DHT22;53462;39.616;8.824;2022-12-29T04:43:28;7.90;99.90
66608;DHT22;53462;39.616;8.824;2022-12-29T04:46:07;7.70;99.90
66608;DHT22;53462;39.616;8.824;2022-12-29T04:48:44;7.40;99.90
66608;DHT22;53462;39.616;8.824;2022-12-29T04:51:33;7.20;99.90
66608;DHT22;53462;39.616;8.824;2022-12-29T04:53:59;7.10;99.90
66608;DHT22;53462;39.616;8.824;2022-12-29T04:56:26;7.40;99.90
66608;DHT22;53462;39.616;8.824;2022-12-29T04:58:52;7.50;99.90
66608;DHT22;53462;39.616;8.824;2022-12-29T05:01:20;7.70;99.90
66608;DHT22;53462;39.616;8.824;2022-12-29T05:03:46;7.80;99.90
66608;DHT22;53462;39.616;8.824;2022-12-29T05:06:11;7.80;99.90
66608;DHT22;53462;39.616;8.824;2022-12-29T05:08:37;7.80;99.90
66608;DHT22;53462;39.616;8.824;2022-12-29T05:11:04;7.60;99.90
66608;DHT22;53462;39.616;8.824;2022-12-29T05:13:30;7.60;99.90
66608;DHT22;53462;39.616;8.824;2022-12-29T05:15:57;7.60;99.90
66608;DHT22;53462;39.616;8.824;2022-12-29T05:18:23;7.80;99.90
66608;DHT22;53462;39.616;8.824;2022-12-29T05:20:49;7.70;99.90
66608;DHT22;53462;39.616;8.824;2022-12-29T05:23:16;7.70;99.90
66608;DHT22;53462;39.616;8.824;2022-12-29T05:25:43;7.70;99.90
66608;DHT22;53462;39.616;8.824;2022-12-29T05:28:16;7.60;99.90
66608;DHT22;53462;39.616;8.824;2022-12-29T05:30:49;7.50;99.90
66608;DHT22;53462;39.616;8.824;2022-12-29T05:33:18;7.60;99.90
66608;DHT22;53462;39.616;8.824;2022-12-29T05:35:44;7.60;99.90
66608;DHT22;53462;39.616;8.824;2022-12-29T05:38:11;7.60;99.90
66608;DHT22;53462;39.616;8.824;2022-12-29T05:40:37;7.60;99.90
66608;DHT22;53462;39.616;8.824;2022-12-29T05:43:11;7.70;99.90
66608;DHT22;53462;39.616;8.824;2022-12-29T05:46:00;7.70;99.90
66608;DHT22;53462;39.616;8.824;2022-12-29T05:48:43;7.60;99.90
66608;DHT22;53462;39.616;8.824;2022-12-29T05:51:29;7.60;99.90
66608;DHT22;53462;39.616;8.824;2022-12-29T05:53:55;7.70;99.90
66608;DHT22;53462;39.616;8.824;2022-12-29T05:56:22;7.80;99.90
66608;DHT22;53462;39.616;8.824;2022-12-29T05:58:55;7.90;99.90
66608;DHT22;53462;39.616;8.824;2022-12-29T06:01:22;7.90;99.90
66608;DHT22;53462;39.616;8.824;2022-12-29T06:03:48;8.00;99.90
66608;DHT22;53462;39.616;8.824;2022-12-29T06:06:14;8.00;99.90
66608;DHT22;53462;39.616;8.824;2022-12-29T06:08:40;8.00;99.90
66608;DHT22;53462;39.616;8.824;2022-12-29T06:11:06;8.10;99.90
66608;DHT22;53462;39.616;8.824;2022-12-29T06:13:32;8.10;99.90
66608;DHT22;53462;39.616;8.824;2022-12-29T06:15:58;8.10;99.90
66608;DHT22;53462;39.616;8.824;2022-12-29T06:18:26;8.10;99.90
66608;DHT22;53462;39.616;8.824;2022-12-29T06:20:52;8.20;99.90
66608;DHT22;53462;39.616;8.824;2022-12-29T06:23:18;8.50;99.90
66608;DHT22;53462;39.616;8.824;2022-12-29T06:25:45;9.20;99.90
66608;DHT22;53462;39.616;8.824;2022-12-29T06:28:12;9.70;99.90
66608;DHT22;53462;39.616;8.824;2022-12-29T06:30:38;9.70;99.90
66608;DHT22;53462;39.616;8.824;2022-12-29T06:33:04;9.60;99.90
66608;DHT22;53462;39.616;8.824;2022-12-29T06:35:30;9.60;99.90
66608;DHT22;53462;39.616;8.824;2022-12-29T06:37:56;10.00;99.90
66608;DHT22;53462;39.616;8.824;2022-12-29T06:40:22;10.20;99.90
66608;DHT22;53462;39.616;8.824;2022-12-29T06:43:11;10.30;99.90
66608;DHT22;53462;39.616;8.824;2022-12-29T06:46:03;10.30;99.90
66608;DHT22;53462;39.616;8.824;2022-12-29T06:48:29;10.30;99.90
66608;DHT22;53462;39.616;8.824;2022-12-29T06:50:55;10.00;99.90
66608;DHT22;53462;39.616;8.824;2022-12-29T06:53:21;10.10;99.90
66608;DHT22;53462;39.616;8.824;2022-12-29T06:55:47;10.30;99.90
66608;DHT22;53462;39.616;8.824;2022-12-29T06:58:13;10.50;99.90
66608;DHT22;53462;39.616;8.824;2022-12-29T07:00:39;10.70;99.90
66608;DHT22;53462;39.616;8.824;2022-12-29T07:03:05;10.90;99.90
66608;DHT22;53462;39.616;8.824;2022-12-29T07:05:31;11.00;99.90
66608;DHT22;53462;39.616;8.824;2022-12-29T07:07:58;11.20;99.90
66608;DHT22;53462;39.616;8.824;2022-12-29T07:10:24;11.20;99.90
66608;DHT22;53462;39.616;8.824;2022-12-29T07:12:50;11.30;99.90
66608;DHT22;53462;39.616;8.824;2022-12-29T07:15:16;11.40;99.90
66608;DHT22;53462;39.616;8.824;2022-12-29T07:17:42;11.50;99.90
66608;DHT22;53462;39.616;8.824;2022-12-29T07:20:08;11.50;99.90
66608;DHT22;53462;39.616;8.824;2022-12-29T07:22:35;11.70;99.90
66608;DHT22;53462;39.616;8.824;2022-12-29T07:25:01;11.80;99.90
66608;DHT22;53462;39.616;8.824;2022-12-29T07:27:28;11.90;99.90
66608;DHT22;53462;39.616;8.824;2022-12-29T07:29:53;12.00;99.90
66608;DHT22;53462;39.616;8.824;2022-12-29T07:32:19;12.20;99.90
66608;DHT22;53462;39.616;8.824;2022-12-29T07:34:45;12.20;99.90
66608;DHT22;53462;39.616;8.824;2022-12-29T07:37:14;12.30;99.90
66608;DHT22;53462;39.616;8.824;2022-12-29T07:39:40;12.40;99.90
66608;DHT22;53462;39.616;8.824;2022-12-29T07:42:06;12.50;99.90
66608;DHT22;53462;39.616;8.824;2022-12-29T07:44:43;12.50;99.90
66608;DHT22;53462;39.616;8.824;2022-12-29T07:47:18;12.70;99.90
66608;DHT22;53462;39.616;8.824;2022-12-29T07:49:44;12.80;99.90
66608;DHT22;53462;39.616;8.824;2022-12-29T07:52:10;12.20;99.90
66608;DHT22;53462;39.616;8.824;2022-12-29T07:54:36;11.80;99.90
66608;DHT22;53462;39.616;8.824;2022-12-29T07:57:02;12.50;99.90
66608;DHT22;53462;39.616;8.824;2022-12-29T07:59:27;13.40;95.30
66608;DHT22;53462;39.616;8.824;2022-12-29T08:01:54;13.90;93.20
66608;DHT22;53462;39.616;8.824;2022-12-29T08:04:19;14.40;91.10
66608;DHT22;53462;39.616;8.824;2022-12-29T08:06:45;15.00;89.80
66608;DHT22;53462;39.616;8.824;2022-12-29T08:09:11;16.00;86.20
66608;DHT22;53462;39.616;8.824;2022-12-29T08:11:37;16.00;85.40
66608;DHT22;53462;39.616;8.824;2022-12-29T08:14:03;16.40;83.10
66608;DHT22;53462;39.616;8.824;2022-12-29T08:16:29;17.30;80.80
66608;DHT22;53462;39.616;8.824;2022-12-29T08:18:56;18.70;74.20
66608;DHT22;53462;39.616;8.824;2022-12-29T08:21:22;18.90;64.90
66608;DHT22;53462;39.616;8.824;2022-12-29T08:23:48;18.60;66.00
66608;DHT22;53462;39.616;8.824;2022-12-29T08:26:13;19.00;62.30
66608;DHT22;53462;39.616;8.824;2022-12-29T08:28:39;19.10;62.20
66608;DHT22;53462;39.616;8.824;2022-12-29T08:31:05;20.00;58.20
66608;DHT22;53462;39.616;8.824;2022-12-29T08:33:31;20.40;55.80
66608;DHT22;53462;39.616;8.824;2022-12-29T08:36:05;20.60;54.90
66608;DHT22;53462;39.616;8.824;2022-12-29T08:38:31;20.90;53.80
66608;DHT22;53462;39.616;8.824;2022-12-29T08:40:58;20.80;53.20
66608;DHT22;53462;39.616;8.824;2022-12-29T08:43:25;20.60;53.80
66608;DHT22;53462;39.616;8.824;2022-12-29T08:45:51;21.40;52.50
66608;DHT22;53462;39.616;8.824;2022-12-29T08:48:17;21.60;51.70
66608;DHT22;53462;39.616;8.824;2022-12-29T08:50:46;21.80;50.60
66608;DHT22;53462;39.616;8.824;2022-12-29T08:53:12;22.00;50.20
66608;DHT22;53462;39.616;8.824;2022-12-29T08:55:38;22.00;48.70
66608;DHT22;53462;39.616;8.824;2022-12-29T08:58:04;22.10;48.70
66608;DHT22;53462;39.616;8.824;2022-12-29T09:00:30;21.20;50.30
66608;DHT22;53462;39.616;8.824;2022-12-29T09:02:56;20.70;53.00
66608;DHT22;53462;39.616;8.824;2022-12-29T09:05:22;20.90;53.40
66608;DHT22;53462;39.616;8.824;2022-12-29T09:07:48;22.40;49.30
66608;DHT22;53462;39.616;8.824;2022-12-29T09:10:14;22.10;49.20
66608;DHT22;53462;39.616;8.824;2022-12-29T09:12:40;22.70;48.30
66608;DHT22;53462;39.616;8.824;2022-12-29T09:15:07;23.00;46.90
66608;DHT22;53462;39.616;8.824;2022-12-29T09:17:33;23.30;46.80
66608;DHT22;53462;39.616;8.824;2022-12-29T09:20:09;22.60;47.40
66608;DHT22;53462;39.616;8.824;2022-12-29T09:22:36;22.90;46.70
66608;DHT22;53462;39.616;8.824;2022-12-29T09:25:02;23.20;46.80
66608;DHT22;53462;39.616;8.824;2022-12-29T09:27:28;23.50;44.60
66608;DHT22;53462;39.616;8.824;2022-12-29T09:29:54;23.30;46.70
66608;DHT22;53462;39.616;8.824;2022-12-29T09:32:20;23.00;45.60
66608;DHT22;53462;39.616;8.824;2022-12-29T09:34:46;24.10;44.50
66608;DHT22;53462;39.616;8.824;2022-12-29T09:37:12;23.40;43.90
66608;DHT22;53462;39.616;8.824;2022-12-29T09:39:37;22.50;45.40
66608;DHT22;53462;39.616;8.824;2022-12-29T09:42:13;24.00;44.10
66608;DHT22;53462;39.616;8.824;2022-12-29T09:47:28;23.70;43.60
66608;DHT22;53462;39.616;8.824;2022-12-29T09:50:01;23.70;42.10
66608;DHT22;53462;39.616;8.824;2022-12-29T09:52:55;24.30;41.40
66608;DHT22;53462;39.616;8.824;2022-12-29T09:55:48;24.60;40.90
66608;DHT22;53462;39.616;8.824;2022-12-29T10:03:53;23.60;41.60
66608;DHT22;53462;39.616;8.824;2022-12-29T10:06:51;23.50;41.80
66608;DHT22;53462;39.616;8.824;2022-12-29T10:15:18;24.70;39.90
66608;DHT22;53462;39.616;8.824;2022-12-29T10:20:38;24.40;39.10
66608;DHT22;53462;39.616;8.824;2022-12-29T10:23:24;24.90;38.90
66608;DHT22;53462;39.616;8.824;2022-12-29T10:25:55;25.20;38.80
66608;DHT22;53462;39.616;8.824;2022-12-29T10:31:02;24.10;39.60
66608;DHT22;53462;39.616;8.824;2022-12-29T10:33:36;24.90;38.50
66608;DHT22;53462;39.616;8.824;2022-12-29T10:36:14;24.90;38.30
66608;DHT22;53462;39.616;8.824;2022-12-29T10:38:51;25.60;37.80
66608;DHT22;53462;39.616;8.824;2022-12-29T10:41:23;25.60;37.00
66608;DHT22;53462;39.616;8.824;2022-12-29T10:43:53;25.30;38.10
66608;DHT22;53462;39.616;8.824;2022-12-29T10:46:30;25.20;37.40
66608;DHT22;53462;39.616;8.824;2022-12-29T10:48:56;24.70;37.60
66608;DHT22;53462;39.616;8.824;2022-12-29T10:51:24;25.50;37.00
66608;DHT22;53462;39.616;8.824;2022-12-29T10:54:15;25.70;37.40
66608;DHT22;53462;39.616;8.824;2022-12-29T10:57:15;26.40;36.90
66608;DHT22;53462;39.616;8.824;2022-12-29T10:59:36;25.10;36.80
66608;DHT22;53462;39.616;8.824;2022-12-29T11:04:55;24.90;37.20
66608;DHT22;53462;39.616;8.824;2022-12-29T11:07:24;25.20;37.80
66608;DHT22;53462;39.616;8.824;2022-12-29T11:09:51;25.80;36.90
66608;DHT22;53462;39.616;8.824;2022-12-29T11:12:28;26.00;36.80
66608;DHT22;53462;39.616;8.824;2022-12-29T11:17:27;25.40;37.50
66608;DHT22;53462;39.616;8.824;2022-12-29T11:19:53;24.60;38.60
66608;DHT22;53462;39.616;8.824;2022-12-29T11:22:25;24.40;40.00
66608;DHT22;53462;39.616;8.824;2022-12-29T11:24:53;24.60;38.80
66608;DHT22;53462;39.616;8.824;2022-12-29T11:27:25;25.00;38.40
66608;DHT22;53462;39.616;8.824;2022-12-29T11:29:53;22.80;42.30
66608;DHT22;53462;39.616;8.824;2022-12-29T11:32:24;21.00;46.00
66608;DHT22;53462;39.616;8.824;2022-12-29T11:34:51;20.30;48.90
66608;DHT22;53462;39.616;8.824;2022-12-29T11:37:40;20.30;49.70
66608;DHT22;53462;39.616;8.824;2022-12-29T11:40:16;19.70;52.20
66608;DHT22;53462;39.616;8.824;2022-12-29T11:42:55;19.40;53.10
66608;DHT22;53462;39.616;8.824;2022-12-29T11:45:25;19.70;54.10
66608;DHT22;53462;39.616;8.824;2022-12-29T11:50:56;19.50;56.80
66608;DHT22;53462;39.616;8.824;2022-12-29T11:53:47;19.40;56.40
66608;DHT22;53462;39.616;8.824;2022-12-29T11:56:17;19.10;56.80
66608;DHT22;53462;39.616;8.824;2022-12-29T11:58:43;19.40;56.80
66608;DHT22;53462;39.616;8.824;2022-12-29T12:03:46;19.00;57.50
66608;DHT22;53462;39.616;8.824;2022-12-29T12:06:18;19.20;56.90
66608;DHT22;53462;39.616;8.824;2022-12-29T12:08:54;19.30;57.50
66608;DHT22;53462;39.616;8.824;2022-12-29T12:11:25;19.20;56.70
66608;DHT22;53462;39.616;8.824;2022-12-29T12:13:59;19.30;57.60
66608;DHT22;53462;39.616;8.824;2022-12-29T12:16:41;19.10;58.20
66608;DHT22;53462;39.616;8.824;2022-12-29T12:19:34;19.10;58.40
66608;DHT22;53462;39.616;8.824;2022-12-29T12:22:21;19.50;57.30
66608;DHT22;53462;39.616;8.824;2022-12-29T12:25:02;19.40;58.20
66608;DHT22;53462;39.616;8.824;2022-12-29T12:27:56;19.30;59.10
66608;DHT22;53462;39.616;8.824;2022-12-29T12:30:24;19.60;58.70
66608;DHT22;53462;39.616;8.824;2022-12-29T12:57:17;19.60;61.70
66608;DHT22;53462;39.616;8.824;2022-12-29T13:00:21;19.30;64.10
66608;DHT22;53462;39.616;8.824;2022-12-29T13:05:38;19.00;65.80
66608;DHT22;53462;39.616;8.824;2022-12-29T13:19:27;19.40;69.00
66608;DHT22;53462;39.616;8.824;2022-12-29T13:22:12;19.20;72.10
66608;DHT22;53462;39.616;8.824;2022-12-29T13:27:48;19.20;77.60
66608;DHT22;53462;39.616;8.824;2022-12-29T13:30:19;19.20;78.70
66608;DHT22;53462;39.616;8.824;2022-12-29T13:32:49;19.20;78.40
66608;DHT22;53462;39.616;8.824;2022-12-29T13:38:30;19.10;80.90
66608;DHT22;53462;39.616;8.824;2022-12-29T13:41:08;19.10;81.60
66608;DHT22;53462;39.616;8.824;2022-12-29T13:43:36;18.90;83.20
66608;DHT22;53462;39.616;8.824;2022-12-29T13:46:09;20.20;79.90
66608;DHT22;53462;39.616;8.824;2022-12-29T13:48:51;21.00;72.20
66608;DHT22;53462;39.616;8.824;2022-12-29T13:51:18;21.60;67.60
66608;DHT22;53462;39.616;8.824;2022-12-29T13:54:00;21.80;67.00
66608;DHT22;53462;39.616;8.824;2022-12-29T13:56:40;22.10;65.50
66608;DHT22;53462;39.616;8.824;2022-12-29T14:00:16;23.40;59.60
66608;DHT22;53462;39.616;8.824;2022-12-29T14:05:29;20.90;69.50
66608;DHT22;53462;39.616;8.824;2022-12-29T14:08:03;19.20;76.50
66608;DHT22;53462;39.616;8.824;2022-12-29T14:10:34;18.70;81.20
66608;DHT22;53462;39.616;8.824;2022-12-29T14:13:13;18.30;84.30
66608;DHT22;53462;39.616;8.824;2022-12-29T14:15:43;18.30;87.00
66608;DHT22;53462;39.616;8.824;2022-12-29T14:18:22;18.60;85.00
66608;DHT22;53462;39.616;8.824;2022-12-29T14:23:41;18.40;87.10
66608;DHT22;53462;39.616;8.824;2022-12-29T14:26:12;19.30;82.50
66608;DHT22;53462;39.616;8.824;2022-12-29T14:28:41;18.60;83.90
66608;DHT22;53462;39.616;8.824;2022-12-29T14:33:40;17.60;91.20
66608;DHT22;53462;39.616;8.824;2022-12-29T14:36:33;17.40;92.70
66608;DHT22;53462;39.616;8.824;2022-12-29T14:39:00;17.10;95.20
66608;DHT22;53462;39.616;8.824;2022-12-29T14:41:35;17.10;96.40
66608;DHT22;53462;39.616;8.824;2022-12-29T14:44:23;16.90;97.40
66608;DHT22;53462;39.616;8.824;2022-12-29T14:46:59;16.80;99.00
66608;DHT22;53462;39.616;8.824;2022-12-29T14:49:31;16.90;99.90
66608;DHT22;53462;39.616;8.824;2022-12-29T14:52:14;16.90;99.90
66608;DHT22;53462;39.616;8.824;2022-12-29T14:54:44;16.80;99.90
66608;DHT22;53462;39.616;8.824;2022-12-29T14:57:22;16.70;99.90
66608;DHT22;53462;39.616;8.824;2022-12-29T14:59:54;16.80;99.90
66608;DHT22;53462;39.616;8.824;2022-12-29T15:02:24;16.60;99.90
66608;DHT22;53462;39.616;8.824;2022-12-29T15:04:53;16.60;99.90
66608;DHT22;53462;39.616;8.824;2022-12-29T15:07:20;16.60;99.90
66608;DHT22;53462;39.616;8.824;2022-12-29T15:09:53;16.50;99.90
66608;DHT22;53462;39.616;8.824;2022-12-29T15:12:45;16.50;99.90
66608;DHT22;53462;39.616;8.824;2022-12-29T15:15:25;16.50;99.90
66608;DHT22;53462;39.616;8.824;2022-12-29T15:17:52;16.50;99.90
66608;DHT22;53462;39.616;8.824;2022-12-29T15:22:58;16.30;99.90
66608;DHT22;53462;39.616;8.824;2022-12-29T15:25:26;16.30;99.90
66608;DHT22;53462;39.616;8.824;2022-12-29T15:27:55;16.30;99.90
66608;DHT22;53462;39.616;8.824;2022-12-29T15:30:23;16.20;99.90
66608;DHT22;53462;39.616;8.824;2022-12-29T15:32:49;16.10;99.90
66608;DHT22;53462;39.616;8.824;2022-12-29T15:38:13;16.00;99.90
66608;DHT22;53462;39.616;8.824;2022-12-29T15:40:39;16.00;99.90
66608;DHT22;53462;39.616;8.824;2022-12-29T15:45:37;15.90;99.90
66608;DHT22;53462;39.616;8.824;2022-12-29T15:48:04;15.80;99.90
66608;DHT22;53462;39.616;8.824;2022-12-29T15:50:34;15.60;99.90
66608;DHT22;53462;39.616;8.824;2022-12-29T15:53:03;15.50;99.90
66608;DHT22;53462;39.616;8.824;2022-12-29T15:55:37;15.30;99.90
66608;DHT22;53462;39.616;8.824;2022-12-29T15:58:05;15.20;99.90
66608;DHT22;53462;39.616;8.824;2022-12-29T16:00:51;15.00;99.90
66608;DHT22;53462;39.616;8.824;2022-12-29T16:03:18;14.90;99.90
66608;DHT22;53462;39.616;8.824;2022-12-29T16:05:54;15.00;99.90
66608;DHT22;53462;39.616;8.824;2022-12-29T16:08:33;15.00;99.90
66608;DHT22;53462;39.616;8.824;2022-12-29T16:13:44;14.90;99.90
66608;DHT22;53462;39.616;8.824;2022-12-29T16:16:27;14.90;99.90
66608;DHT22;53462;39.616;8.824;2022-12-29T16:18:54;14.80;99.90
66608;DHT22;53462;39.616;8.824;2022-12-29T16:23:51;14.70;99.90
66608;DHT22;53462;39.616;8.824;2022-12-29T16:26:19;14.70;99.90
66608;DHT22;53462;39.616;8.824;2022-12-29T16:28:49;14.70;99.90
66608;DHT22;53462;39.616;8.824;2022-12-29T16:32:19;14.50;99.90
66608;DHT22;53462;39.616;8.824;2022-12-29T16:34:32;14.50;99.90
66608;DHT22;53462;39.616;8.824;2022-12-29T16:39:36;14.50;99.90
66608;DHT22;53462;39.616;8.824;2022-12-29T16:47:45;14.50;99.90
66608;DHT22;53462;39.616;8.824;2022-12-29T16:50:16;14.40;99.90
66608;DHT22;53462;39.616;8.824;2022-12-29T16:52:48;14.40;99.90
66608;DHT22;53462;39.616;8.824;2022-12-29T16:55:16;14.30;99.90
66608;DHT22;53462;39.616;8.824;2022-12-29T16:57:44;14.30;99.90
66608;DHT22;53462;39.616;8.824;2022-12-29T17:00:33;14.20;99.90
66608;DHT22;53462;39.616;8.824;2022-12-29T17:03:00;14.10;99.90
66608;DHT22;53462;39.616;8.824;2022-12-29T17:05:27;14.10;99.90
66608;DHT22;53462;39.616;8.824;2022-12-29T17:07:53;14.20;99.90
66608;DHT22;53462;39.616;8.824;2022-12-29T17:10:20;14.20;99.90
66608;DHT22;53462;39.616;8.824;2022-12-29T17:13:06;14.10;99.90
66608;DHT22;53462;39.616;8.824;2022-12-29T17:15:33;14.10;99.90
66608;DHT22;53462;39.616;8.824;2022-12-29T17:18:00;14.00;99.90
66608;DHT22;53462;39.616;8.824;2022-12-29T17:20:29;14.00;99.90
66608;DHT22;53462;39.616;8.824;2022-12-29T17:22:55;14.00;99.90
66608;DHT22;53462;39.616;8.824;2022-12-29T17:25:36;14.00;99.90
66608;DHT22;53462;39.616;8.824;2022-12-29T17:30:43;14.10;99.90
66608;DHT22;53462;39.616;8.824;2022-12-29T17:33:15;14.00;99.90
66608;DHT22;53462;39.616;8.824;2022-12-29T17:35:42;14.00;99.90
66608;DHT22;53462;39.616;8.824;2022-12-29T17:38:27;14.00;99.90
66608;DHT22;53462;39.616;8.824;2022-12-29T17:40:53;13.90;99.90
66608;DHT22;53462;39.616;8.824;2022-12-29T17:43:20;13.90;99.90
66608;DHT22;53462;39.616;8.824;2022-12-29T17:45:53;13.90;99.90
66608;DHT22;53462;39.616;8.824;2022-12-29T17:48:19;13.90;99.90
66608;DHT22;53462;39.616;8.824;2022-12-29T17:50:47;13.90;99.90
66608;DHT22;53462;39.616;8.824;2022-12-29T17:53:20;13.80;99.90
66608;DHT22;53462;39.616;8.824;2022-12-29T17:55:47;13.70;99.90
66608;DHT22;53462;39.616;8.824;2022-12-29T17:58:21;13.70;99.90
66608;DHT22;53462;39.616;8.824;2022-12-29T18:00:50;13.70;99.90
66608;DHT22;53462;39.616;8.824;2022-12-29T18:03:22;13.60;99.90
66608;DHT22;53462;39.616;8.824;2022-12-29T18:05:49;13.60;99.90
66608;DHT22;53462;39.616;8.824;2022-12-29T18:08:15;13.60;99.90
66608;DHT22;53462;39.616;8.824;2022-12-29T18:10:41;13.60;99.90
66608;DHT22;53462;39.616;8.824;2022-12-29T18:13:21;13.50;99.90
66608;DHT22;53462;39.616;8.824;2022-12-29T18:15:48;13.50;99.90
66608;DHT22;53462;39.616;8.824;2022-12-29T18:18:17;13.40;99.90
66608;DHT22;53462;39.616;8.824;2022-12-29T18:20:44;13.40;99.90
66608;DHT22;53462;39.616;8.824;2022-12-29T18:23:31;13.40;99.90
66608;DHT22;53462;39.616;8.824;2022-12-29T18:26:03;13.40;99.90
66608;DHT22;53462;39.616;8.824;2022-12-29T18:28:29;13.40;99.90